Main page
METAR-TAF:

METAR-TAF

Airports :

RAF Coningsby

Coningsby, England

latitude: 53-05N, longitude: 000-10W, elevation: 7 m

Current weather observation

The report was made 47 minutes ago, at 02:50 UTC
Wind 5 kt from the North/Northwest
Temperature 9°C
Humidity 93%
Pressure 1014 hPa
Visibility 10 km or more
no clouds below 1500 m and no cumulonimbus

METAR: EGXC 230250Z 34005KT CAVOK 09/08 Q1014 BLU

Time: 04:37 (03:37 UTC)

Forecast

The report was made 2 hours and 15 minutes ago, at 01:22 UTC
Forecast valid from 23 at 03 UTC to 23 at 21 UTC
Wind 5 kt from the Northwest
Visibility 10 km or more
Scattered clouds at a height of 4000 ft
Becoming
from 23 at 10 UTC to 23 at 12 UTC
Wind 15 kt from the North/Northwest
Temporary
from 23 at 13 UTC to 23 at 17 UTC
Wind 15 kt from the North/Northwest with gusts up to 25 kt

TAF: EGXC 230122Z 2303/2321 32005KT 9999 SCT040 BECMG 2310/2312 33015KT TEMPO 2313/2317 34015G25KT

Weather observations and forecasts of more than 4000 airports (METAR and TAF reports).

The available stations are represented by yellow and red dots on the map.

Hover mouse over dot to see the name of the station.

Then click to see weather observations and forecasts.

To change the map : click on the green buttons with a black cross to zoom in, on the green button with a dash to zoom out, or on the green arrows for adjacent maps.


METAR-TAF: